Detall de PIREP

Printer-friendly versionPDF version

[2011/01/07 08:45:00]
Flight IATA:CT2110
Pilot Number:041
Company ICAO:CAT
Aircraft Type:F28/A
PAX:76
Departing Airport: LEVC
Destination Airport: LEST
Alternate Airport:LECO
Online: VATSIM
Route:CENTA A33 PRADO A33 CJN A33 HORTA A33 MAGIN A33 INDEG A33 DISKO A33 ZMR A33 BARKO A33 FORNO
Flight Level:FL230
No Slew and time accel
No pause
Crash detect
Detect pilot in Cockpit between each 30 and 45 minutes
08:45 Zero fuel Weight: 57507 Lbs, Fuel Weight: 11269 Lbs
08:45 VATSIM:LEVC 070830Z VRB02KT CAVOK 10/09 Q1016 NOSIG
08:45 VATSIM:LEST 070830Z 19019G29KT 160V220 3000 SHRA SCT015 BKN032 SCT041CB 10/08 Q1003 NOSIG
08:46 VOICE CATALONIAN
08:48 Parking Brakes off
08:55 Take-off
08:55 Take off Weight: 68276 Lbs
08:55 Wind: 089º @ 002 Knots Heading: 296º
08:55 POS N39º 29´ 40´´ W000º 29´ 43´´
08:55 Gear Up: 196 Knots
08:55 Flaps:1 at 196 Knots
08:56 Flaps:0 at 255 Knots
09:07 TOC
09:07 Fuel Weight: 9141 Lb
09:10 Wind:156º@004 Knots Heading: 298º Ground Speed: 405 Knots Altitude 23136 ft
09:25 Wind:178º@010 Knots Heading: 295º Ground Speed: 410 Knots Altitude 23041 ft
09:36 TOD
09:36 Fuel Weight: 6712 Lb
09:40 Wind:204º@020 Knots Heading: 301º Ground Speed: 394 Knots Altitude 19658 ft
09:55 Wind:203º@039 Knots Heading: 294º Ground Speed: 266 Knots Altitude 5498 ft
10:04 Flaps:1 at 217 Knots
10:07 Flaps:2 at 220 Knots
10:08 Gear Down: 181 Knots
10:09 Flaps:3 at 170 Knots
10:10 Wind:200º@013 Knots Heading: 167º Ground Speed: 153 Knots Altitude 2542 ft
10:11 TouchDown:Rate -100 ft/min Speed: 146 Knots
10:12 VATSIM:LEST 071000Z 20013KT 170V250 2500 TSRA BKN010 BKN020 BKN032CB 08/08 Q1004 NOSIG
10:12 Land
10:12 Wind:199º@013 Knots
10:12 Heading: 166º
10:12 Flight Duration: 01:17
10:12 Landing Weight: 62109 Lbs
10:12 POS N42º 53´ 22´´ W008º 24´ 46´´
10:17 Parking brakes on
10:17 Block to Block Duration: 01:29
10:17 Final Fuel: 4384 Lbls
10:17 Spent Fuel: 6884 Lbls
10:17 Flight Length: 430 NM
10:17 TOD Land Length: 172 NM

Exportar CSV

Powered by Drupal - Modified by Danger4k